sensor_id;sensor_type;location;lat;lon;timestamp;temperature;humidity
36652;DHT22;53334;51.976;20.144;2022-11-23T00:01:15;25.00;50.50
36652;DHT22;53334;51.976;20.144;2022-11-23T00:03:51;25.00;50.50
36652;DHT22;53334;51.976;20.144;2022-11-23T00:06:25;25.00;50.50
36652;DHT22;53334;51.976;20.144;2022-11-23T00:08:59;25.00;50.50
36652;DHT22;53334;51.976;20.144;2022-11-23T00:11:35;25.00;50.40
36652;DHT22;53334;51.976;20.144;2022-11-23T00:14:12;25.00;50.50
36652;DHT22;53334;51.976;20.144;2022-11-23T00:16:48;25.00;50.50
36652;DHT22;53334;51.976;20.144;2022-11-23T00:19:21;25.00;50.50
36652;DHT22;53334;51.976;20.144;2022-11-23T00:21:55;25.00;50.50
36652;DHT22;53334;51.976;20.144;2022-11-23T00:24:29;25.00;50.50
36652;DHT22;53334;51.976;20.144;2022-11-23T00:27:05;25.00;50.50
36652;DHT22;53334;51.976;20.144;2022-11-23T00:29:39;25.00;50.40
36652;DHT22;53334;51.976;20.144;2022-11-23T00:32:13;25.00;50.50
36652;DHT22;53334;51.976;20.144;2022-11-23T00:34:47;25.00;50.50
36652;DHT22;53334;51.976;20.144;2022-11-23T00:37:22;25.00;50.50
36652;DHT22;53334;51.976;20.144;2022-11-23T00:39:56;25.00;50.60
36652;DHT22;53334;51.976;20.144;2022-11-23T00:42:31;25.10;50.90
36652;DHT22;53334;51.976;20.144;2022-11-23T00:45:09;25.00;51.50
36652;DHT22;53334;51.976;20.144;2022-11-23T00:47:44;25.00;51.70
36652;DHT22;53334;51.976;20.144;2022-11-23T00:50:17;25.00;51.80
36652;DHT22;53334;51.976;20.144;2022-11-23T00:52:54;25.00;52.00
36652;DHT22;53334;51.976;20.144;2022-11-23T00:55:28;25.00;51.90
36652;DHT22;53334;51.976;20.144;2022-11-23T00:58:03;25.00;51.90
36652;DHT22;53334;51.976;20.144;2022-11-23T01:00:37;25.10;52.20
36652;DHT22;53334;51.976;20.144;2022-11-23T01:03:12;25.00;52.30
36652;DHT22;53334;51.976;20.144;2022-11-23T01:05:46;25.10;52.30
36652;DHT22;53334;51.976;20.144;2022-11-23T01:08:20;25.10;52.50
36652;DHT22;53334;51.976;20.144;2022-11-23T01:10:58;25.10;52.50
36652;DHT22;53334;51.976;20.144;2022-11-23T01:13:34;25.10;52.40
36652;DHT22;53334;51.976;20.144;2022-11-23T01:16:13;25.10;52.40
36652;DHT22;53334;51.976;20.144;2022-11-23T01:18:55;25.10;52.50
36652;DHT22;53334;51.976;20.144;2022-11-23T01:21:30;25.10;52.50
36652;DHT22;53334;51.976;20.144;2022-11-23T01:24:05;25.10;52.50
36652;DHT22;53334;51.976;20.144;2022-11-23T01:26:50;25.10;52.50
36652;DHT22;53334;51.976;20.144;2022-11-23T01:29:25;25.10;52.50
36652;DHT22;53334;51.976;20.144;2022-11-23T01:32:02;25.10;52.50
36652;DHT22;53334;51.976;20.144;2022-11-23T01:34:36;25.10;52.50
36652;DHT22;53334;51.976;20.144;2022-11-23T01:37:10;25.10;52.50
36652;DHT22;53334;51.976;20.144;2022-11-23T01:39:44;25.10;52.50
36652;DHT22;53334;51.976;20.144;2022-11-23T01:42:21;25.10;52.50
36652;DHT22;53334;51.976;20.144;2022-11-23T01:45:32;25.00;52.50
36652;DHT22;53334;51.976;20.144;2022-11-23T01:48:14;25.10;52.70
36652;DHT22;53334;51.976;20.144;2022-11-23T01:50:51;25.10;52.60
36652;DHT22;53334;51.976;20.144;2022-11-23T01:53:27;25.10;52.80
36652;DHT22;53334;51.976;20.144;2022-11-23T01:56:04;25.10;52.90
36652;DHT22;53334;51.976;20.144;2022-11-23T01:58:40;25.10;52.70
36652;DHT22;53334;51.976;20.144;2022-11-23T02:01:17;25.10;53.40
36652;DHT22;53334;51.976;20.144;2022-11-23T02:03:54;25.10;52.90
36652;DHT22;53334;51.976;20.144;2022-11-23T02:06:29;25.10;53.00
36652;DHT22;53334;51.976;20.144;2022-11-23T02:09:07;25.10;52.90
36652;DHT22;53334;51.976;20.144;2022-11-23T02:11:41;25.10;52.90
36652;DHT22;53334;51.976;20.144;2022-11-23T02:14:18;25.10;53.00
36652;DHT22;53334;51.976;20.144;2022-11-23T02:17:00;25.10;52.90
36652;DHT22;53334;51.976;20.144;2022-11-23T02:19:40;25.10;52.90
36652;DHT22;53334;51.976;20.144;2022-11-23T02:22:21;25.10;52.90
36652;DHT22;53334;51.976;20.144;2022-11-23T02:25:00;25.10;53.00
36652;DHT22;53334;51.976;20.144;2022-11-23T02:27:39;25.10;53.00
36652;DHT22;53334;51.976;20.144;2022-11-23T02:30:18;25.10;53.10
36652;DHT22;53334;51.976;20.144;2022-11-23T02:32:52;25.10;53.00
36652;DHT22;53334;51.976;20.144;2022-11-23T02:35:26;25.10;53.00
36652;DHT22;53334;51.976;20.144;2022-11-23T02:38:01;25.10;53.10
36652;DHT22;53334;51.976;20.144;2022-11-23T02:40:38;25.10;53.20
36652;DHT22;53334;51.976;20.144;2022-11-23T02:43:14;25.10;53.20
36652;DHT22;53334;51.976;20.144;2022-11-23T02:45:52;25.10;53.20
36652;DHT22;53334;51.976;20.144;2022-11-23T02:48:29;25.10;53.10
36652;DHT22;53334;51.976;20.144;2022-11-23T02:51:03;25.10;53.10
36652;DHT22;53334;51.976;20.144;2022-11-23T02:53:37;25.10;53.20
36652;DHT22;53334;51.976;20.144;2022-11-23T02:56:14;25.10;53.10
36652;DHT22;53334;51.976;20.144;2022-11-23T02:58:49;25.10;53.20
36652;DHT22;53334;51.976;20.144;2022-11-23T03:01:25;25.10;53.20
36652;DHT22;53334;51.976;20.144;2022-11-23T03:04:00;25.10;53.20
36652;DHT22;53334;51.976;20.144;2022-11-23T03:06:34;25.10;53.20
36652;DHT22;53334;51.976;20.144;2022-11-23T03:09:08;25.10;53.20
36652;DHT22;53334;51.976;20.144;2022-11-23T03:11:42;25.10;53.20
36652;DHT22;53334;51.976;20.144;2022-11-23T03:14:19;25.10;53.30
36652;DHT22;53334;51.976;20.144;2022-11-23T03:17:00;25.10;53.30
36652;DHT22;53334;51.976;20.144;2022-11-23T03:19:39;25.10;53.40
36652;DHT22;53334;51.976;20.144;2022-11-23T03:22:15;25.10;53.40
36652;DHT22;53334;51.976;20.144;2022-11-23T03:24:51;25.10;53.40
36652;DHT22;53334;51.976;20.144;2022-11-23T03:27:25;25.10;53.40
36652;DHT22;53334;51.976;20.144;2022-11-23T03:30:01;25.10;53.30
36652;DHT22;53334;51.976;20.144;2022-11-23T03:32:38;25.10;53.50
36652;DHT22;53334;51.976;20.144;2022-11-23T03:35:12;25.10;53.50
36652;DHT22;53334;51.976;20.144;2022-11-23T03:38:12;25.10;53.30
36652;DHT22;53334;51.976;20.144;2022-11-23T03:40:47;25.10;53.50
36652;DHT22;53334;51.976;20.144;2022-11-23T03:43:27;25.10;53.50
36652;DHT22;53334;51.976;20.144;2022-11-23T03:46:03;25.10;53.50
36652;DHT22;53334;51.976;20.144;2022-11-23T03:48:37;25.10;53.60
36652;DHT22;53334;51.976;20.144;2022-11-23T03:51:11;25.10;53.50
36652;DHT22;53334;51.976;20.144;2022-11-23T03:53:45;25.10;53.50
36652;DHT22;53334;51.976;20.144;2022-11-23T03:56:19;25.10;53.70
36652;DHT22;53334;51.976;20.144;2022-11-23T03:58:54;25.10;53.50
36652;DHT22;53334;51.976;20.144;2022-11-23T04:01:29;25.10;53.60
36652;DHT22;53334;51.976;20.144;2022-11-23T04:04:08;25.10;53.60
36652;DHT22;53334;51.976;20.144;2022-11-23T04:07:03;25.10;53.60
36652;DHT22;53334;51.976;20.144;2022-11-23T04:09:42;25.10;53.60
36652;DHT22;53334;51.976;20.144;2022-11-23T04:12:35;25.10;53.50
36652;DHT22;53334;51.976;20.144;2022-11-23T04:15:11;25.10;53.60
36652;DHT22;53334;51.976;20.144;2022-11-23T04:17:47;25.10;53.70
36652;DHT22;53334;51.976;20.144;2022-11-23T04:20:21;25.10;53.80
36652;DHT22;53334;51.976;20.144;2022-11-23T04:22:55;25.10;53.70
36652;DHT22;53334;51.976;20.144;2022-11-23T04:25:30;25.10;53.60
36652;DHT22;53334;51.976;20.144;2022-11-23T04:28:04;25.10;53.70
36652;DHT22;53334;51.976;20.144;2022-11-23T04:30:38;25.10;53.80
36652;DHT22;53334;51.976;20.144;2022-11-23T04:33:13;25.10;53.60
36652;DHT22;53334;51.976;20.144;2022-11-23T04:35:48;25.10;53.70
36652;DHT22;53334;51.976;20.144;2022-11-23T04:38:22;25.10;53.60
36652;DHT22;53334;51.976;20.144;2022-11-23T04:40:57;25.10;53.60
36652;DHT22;53334;51.976;20.144;2022-11-23T04:43:31;25.10;53.60
36652;DHT22;53334;51.976;20.144;2022-11-23T04:46:06;25.10;53.60
36652;DHT22;53334;51.976;20.144;2022-11-23T04:48:41;25.10;53.70
36652;DHT22;53334;51.976;20.144;2022-11-23T04:51:15;25.10;54.30
36652;DHT22;53334;51.976;20.144;2022-11-23T04:53:49;25.10;53.60
36652;DHT22;53334;51.976;20.144;2022-11-23T04:56:24;25.10;53.60
36652;DHT22;53334;51.976;20.144;2022-11-23T04:58:57;25.10;53.60
36652;DHT22;53334;51.976;20.144;2022-11-23T05:01:31;25.10;53.70
36652;DHT22;53334;51.976;20.144;2022-11-23T05:04:42;25.10;53.60
36652;DHT22;53334;51.976;20.144;2022-11-23T05:07:17;25.10;53.60
36652;DHT22;53334;51.976;20.144;2022-11-23T05:09:58;25.10;53.70
36652;DHT22;53334;51.976;20.144;2022-11-23T05:12:32;25.10;53.60
36652;DHT22;53334;51.976;20.144;2022-11-23T05:15:09;25.10;53.70
36652;DHT22;53334;51.976;20.144;2022-11-23T05:17:45;25.10;53.70
36652;DHT22;53334;51.976;20.144;2022-11-23T05:20:28;25.10;53.60
36652;DHT22;53334;51.976;20.144;2022-11-23T05:23:03;25.10;53.70
36652;DHT22;53334;51.976;20.144;2022-11-23T05:25:38;25.10;53.70
36652;DHT22;53334;51.976;20.144;2022-11-23T05:28:17;25.10;53.60
36652;DHT22;53334;51.976;20.144;2022-11-23T05:31:12;25.10;53.70
36652;DHT22;53334;51.976;20.144;2022-11-23T05:33:49;25.10;53.70
36652;DHT22;53334;51.976;20.144;2022-11-23T05:36:33;25.20;53.60
36652;DHT22;53334;51.976;20.144;2022-11-23T05:39:13;25.20;53.40
36652;DHT22;53334;51.976;20.144;2022-11-23T05:41:48;25.10;53.40
36652;DHT22;53334;51.976;20.144;2022-11-23T05:44:33;25.20;53.40
36652;DHT22;53334;51.976;20.144;2022-11-23T05:47:08;25.20;53.70
36652;DHT22;53334;51.976;20.144;2022-11-23T05:49:43;25.20;53.70
36652;DHT22;53334;51.976;20.144;2022-11-23T05:52:20;25.20;53.60
36652;DHT22;53334;51.976;20.144;2022-11-23T05:54:54;25.20;53.60
36652;DHT22;53334;51.976;20.144;2022-11-23T05:57:28;25.20;53.80
36652;DHT22;53334;51.976;20.144;2022-11-23T06:00:03;25.20;54.10
36652;DHT22;53334;51.976;20.144;2022-11-23T06:02:59;25.20;54.20
36652;DHT22;53334;51.976;20.144;2022-11-23T06:05:35;25.20;54.30
36652;DHT22;53334;51.976;20.144;2022-11-23T06:08:12;25.20;54.30
36652;DHT22;53334;51.976;20.144;2022-11-23T06:10:46;25.20;54.10
36652;DHT22;53334;51.976;20.144;2022-11-23T06:13:20;25.20;54.00
36652;DHT22;53334;51.976;20.144;2022-11-23T06:15:54;25.20;54.30
36652;DHT22;53334;51.976;20.144;2022-11-23T06:18:35;25.20;54.30
36652;DHT22;53334;51.976;20.144;2022-11-23T06:21:09;25.20;54.30
36652;DHT22;53334;51.976;20.144;2022-11-23T06:23:45;25.20;54.20
36652;DHT22;53334;51.976;20.144;2022-11-23T06:26:20;25.30;54.30
36652;DHT22;53334;51.976;20.144;2022-11-23T06:28:53;25.20;54.10
36652;DHT22;53334;51.976;20.144;2022-11-23T06:31:27;25.20;54.20
36652;DHT22;53334;51.976;20.144;2022-11-23T06:34:02;25.30;54.10
36652;DHT22;53334;51.976;20.144;2022-11-23T06:36:37;25.20;54.20
36652;DHT22;53334;51.976;20.144;2022-11-23T06:39:13;25.30;54.30
36652;DHT22;53334;51.976;20.144;2022-11-23T06:41:47;25.20;54.20
36652;DHT22;53334;51.976;20.144;2022-11-23T06:44:21;25.20;54.30
36652;DHT22;53334;51.976;20.144;2022-11-23T06:46:57;25.30;54.40
36652;DHT22;53334;51.976;20.144;2022-11-23T06:49:31;25.30;54.20
36652;DHT22;53334;51.976;20.144;2022-11-23T06:52:16;25.30;54.20
36652;DHT22;53334;51.976;20.144;2022-11-23T06:54:52;25.30;54.40
36652;DHT22;53334;51.976;20.144;2022-11-23T06:57:28;25.30;54.60
36652;DHT22;53334;51.976;20.144;2022-11-23T07:00:03;25.30;54.70
36652;DHT22;53334;51.976;20.144;2022-11-23T07:02:41;25.30;54.70
36652;DHT22;53334;51.976;20.144;2022-11-23T07:05:18;25.30;54.40
36652;DHT22;53334;51.976;20.144;2022-11-23T07:07:52;25.30;54.20
36652;DHT22;53334;51.976;20.144;2022-11-23T07:10:32;25.30;54.10
36652;DHT22;53334;51.976;20.144;2022-11-23T07:13:08;25.40;54.10
36652;DHT22;53334;51.976;20.144;2022-11-23T07:15:42;25.30;53.90
36652;DHT22;53334;51.976;20.144;2022-11-23T07:18:16;25.40;54.00
36652;DHT22;53334;51.976;20.144;2022-11-23T07:20:56;25.30;53.80
36652;DHT22;53334;51.976;20.144;2022-11-23T07:23:31;25.30;54.00
36652;DHT22;53334;51.976;20.144;2022-11-23T07:26:11;25.30;53.80
36652;DHT22;53334;51.976;20.144;2022-11-23T07:28:45;25.30;53.20
36652;DHT22;53334;51.976;20.144;2022-11-23T07:31:19;25.30;52.70
36652;DHT22;53334;51.976;20.144;2022-11-23T07:33:53;25.30;52.30
36652;DHT22;53334;51.976;20.144;2022-11-23T07:36:28;25.30;51.90
36652;DHT22;53334;51.976;20.144;2022-11-23T07:39:02;25.30;51.70
36652;DHT22;53334;51.976;20.144;2022-11-23T07:41:37;25.20;51.30
36652;DHT22;53334;51.976;20.144;2022-11-23T07:44:24;25.20;51.00
36652;DHT22;53334;51.976;20.144;2022-11-23T07:46:58;25.20;50.80
36652;DHT22;53334;51.976;20.144;2022-11-23T07:49:32;25.20;50.50
36652;DHT22;53334;51.976;20.144;2022-11-23T07:52:06;25.20;50.30
36652;DHT22;53334;51.976;20.144;2022-11-23T07:54:43;25.20;50.40
36652;DHT22;53334;51.976;20.144;2022-11-23T07:57:19;25.20;50.10
36652;DHT22;53334;51.976;20.144;2022-11-23T07:59:53;25.20;49.70
36652;DHT22;53334;51.976;20.144;2022-11-23T08:02:27;25.20;49.50
36652;DHT22;53334;51.976;20.144;2022-11-23T08:05:02;25.20;49.10
36652;DHT22;53334;51.976;20.144;2022-11-23T08:07:43;25.20;48.80
36652;DHT22;53334;51.976;20.144;2022-11-23T08:10:17;25.20;48.40
36652;DHT22;53334;51.976;20.144;2022-11-23T08:12:57;25.20;48.00
36652;DHT22;53334;51.976;20.144;2022-11-23T08:15:32;25.20;47.70
36652;DHT22;53334;51.976;20.144;2022-11-23T08:18:06;25.20;47.50
36652;DHT22;53334;51.976;20.144;2022-11-23T08:20:42;25.20;47.20
36652;DHT22;53334;51.976;20.144;2022-11-23T08:23:18;25.20;46.90
36652;DHT22;53334;51.976;20.144;2022-11-23T08:25:56;25.20;46.50
36652;DHT22;53334;51.976;20.144;2022-11-23T08:28:31;25.20;46.50
36652;DHT22;53334;51.976;20.144;2022-11-23T08:31:06;25.20;46.10
36652;DHT22;53334;51.976;20.144;2022-11-23T08:33:41;25.20;46.30
36652;DHT22;53334;51.976;20.144;2022-11-23T08:36:22;25.20;46.20
36652;DHT22;53334;51.976;20.144;2022-11-23T08:38:58;25.20;45.90
36652;DHT22;53334;51.976;20.144;2022-11-23T08:41:32;25.20;45.50
36652;DHT22;53334;51.976;20.144;2022-11-23T08:44:08;25.20;45.50
36652;DHT22;53334;51.976;20.144;2022-11-23T08:46:44;25.20;45.00
36652;DHT22;53334;51.976;20.144;2022-11-23T08:49:18;25.20;45.20
36652;DHT22;53334;51.976;20.144;2022-11-23T08:51:53;25.20;45.40
36652;DHT22;53334;51.976;20.144;2022-11-23T08:54:27;25.20;45.20
36652;DHT22;53334;51.976;20.144;2022-11-23T08:57:01;25.20;45.90
36652;DHT22;53334;51.976;20.144;2022-11-23T08:59:37;25.20;45.20
36652;DHT22;53334;51.976;20.144;2022-11-23T09:02:15;25.20;45.30
36652;DHT22;53334;51.976;20.144;2022-11-23T09:04:49;25.20;45.10
36652;DHT22;53334;51.976;20.144;2022-11-23T09:07:23;25.20;45.20
36652;DHT22;53334;51.976;20.144;2022-11-23T09:09:57;25.20;45.30
36652;DHT22;53334;51.976;20.144;2022-11-23T09:12:32;25.20;45.40
36652;DHT22;53334;51.976;20.144;2022-11-23T09:15:09;25.20;45.60
36652;DHT22;53334;51.976;20.144;2022-11-23T09:17:43;25.20;45.90
36652;DHT22;53334;51.976;20.144;2022-11-23T09:20:17;25.20;46.00
36652;DHT22;53334;51.976;20.144;2022-11-23T09:22:53;25.20;46.30
36652;DHT22;53334;51.976;20.144;2022-11-23T09:25:32;25.30;46.80
36652;DHT22;53334;51.976;20.144;2022-11-23T09:28:06;25.20;47.00
36652;DHT22;53334;51.976;20.144;2022-11-23T09:30:41;25.30;47.30
36652;DHT22;53334;51.976;20.144;2022-11-23T09:33:17;25.20;47.40
36652;DHT22;53334;51.976;20.144;2022-11-23T09:35:58;25.20;47.50
36652;DHT22;53334;51.976;20.144;2022-11-23T09:38:35;25.30;47.60
36652;DHT22;53334;51.976;20.144;2022-11-23T09:41:59;25.20;47.80
36652;DHT22;53334;51.976;20.144;2022-11-23T09:44:46;25.30;48.00
36652;DHT22;53334;51.976;20.144;2022-11-23T09:47:45;25.30;47.90
36652;DHT22;53334;51.976;20.144;2022-11-23T09:50:28;25.30;47.80
36652;DHT22;53334;51.976;20.144;2022-11-23T09:53:11;25.30;47.80
36652;DHT22;53334;51.976;20.144;2022-11-23T09:55:47;25.30;47.70
36652;DHT22;53334;51.976;20.144;2022-11-23T09:58:23;25.30;47.80
36652;DHT22;53334;51.976;20.144;2022-11-23T10:01:02;25.30;47.80
36652;DHT22;53334;51.976;20.144;2022-11-23T10:03:38;25.30;48.10
36652;DHT22;53334;51.976;20.144;2022-11-23T10:06:22;25.30;48.50
36652;DHT22;53334;51.976;20.144;2022-11-23T10:09:06;25.30;49.40
36652;DHT22;53334;51.976;20.144;2022-11-23T10:12:16;25.40;49.30
36652;DHT22;53334;51.976;20.144;2022-11-23T10:15:09;25.30;49.60
36652;DHT22;53334;51.976;20.144;2022-11-23T10:18:08;25.40;49.60
36652;DHT22;53334;51.976;20.144;2022-11-23T10:20:54;25.40;49.60
36652;DHT22;53334;51.976;20.144;2022-11-23T10:23:46;25.40;49.50
36652;DHT22;53334;51.976;20.144;2022-11-23T10:26:27;25.40;49.20
36652;DHT22;53334;51.976;20.144;2022-11-23T10:29:11;25.40;49.00
36652;DHT22;53334;51.976;20.144;2022-11-23T10:31:48;25.40;48.90
36652;DHT22;53334;51.976;20.144;2022-11-23T10:34:45;25.40;48.80
36652;DHT22;53334;51.976;20.144;2022-11-23T10:37:22;25.40;48.70
36652;DHT22;53334;51.976;20.144;2022-11-23T10:39:56;25.40;48.80
36652;DHT22;53334;51.976;20.144;2022-11-23T10:42:34;25.40;48.80
36652;DHT22;53334;51.976;20.144;2022-11-23T10:45:18;25.40;47.60
36652;DHT22;53334;51.976;20.144;2022-11-23T10:47:54;25.40;45.90
36652;DHT22;53334;51.976;20.144;2022-11-23T10:50:31;25.40;44.50
36652;DHT22;53334;51.976;20.144;2022-11-23T10:53:19;25.30;42.70
36652;DHT22;53334;51.976;20.144;2022-11-23T10:55:56;25.30;43.80
36652;DHT22;53334;51.976;20.144;2022-11-23T10:58:33;25.30;42.10
36652;DHT22;53334;51.976;20.144;2022-11-23T11:01:16;25.30;39.90
36652;DHT22;53334;51.976;20.144;2022-11-23T11:03:56;25.30;39.90
36652;DHT22;53334;51.976;20.144;2022-11-23T11:06:34;25.20;39.80
36652;DHT22;53334;51.976;20.144;2022-11-23T11:09:20;25.30;40.00
36652;DHT22;53334;51.976;20.144;2022-11-23T11:11:55;25.30;41.10
36652;DHT22;53334;51.976;20.144;2022-11-23T11:14:29;25.30;40.40
36652;DHT22;53334;51.976;20.144;2022-11-23T11:17:25;25.30;40.40
36652;DHT22;53334;51.976;20.144;2022-11-23T11:20:00;25.30;41.70
36652;DHT22;53334;51.976;20.144;2022-11-23T11:22:35;25.30;41.20
36652;DHT22;53334;51.976;20.144;2022-11-23T11:25:28;25.20;41.00
36652;DHT22;53334;51.976;20.144;2022-11-23T11:28:04;25.30;42.00
36652;DHT22;53334;51.976;20.144;2022-11-23T11:30:44;25.30;41.60
36652;DHT22;53334;51.976;20.144;2022-11-23T11:33:25;25.30;41.50
36652;DHT22;53334;51.976;20.144;2022-11-23T11:36:07;25.30;41.20
36652;DHT22;53334;51.976;20.144;2022-11-23T11:38:47;25.30;41.10
36652;DHT22;53334;51.976;20.144;2022-11-23T11:41:44;25.30;41.20
36652;DHT22;53334;51.976;20.144;2022-11-23T11:44:20;25.40;41.20
36652;DHT22;53334;51.976;20.144;2022-11-23T11:46:59;25.30;40.90
36652;DHT22;53334;51.976;20.144;2022-11-23T11:49:40;25.30;41.00
36652;DHT22;53334;51.976;20.144;2022-11-23T11:52:19;25.30;40.80
36652;DHT22;53334;51.976;20.144;2022-11-23T11:54:58;25.30;40.90
36652;DHT22;53334;51.976;20.144;2022-11-23T11:57:38;25.30;41.00
36652;DHT22;53334;51.976;20.144;2022-11-23T12:00:17;25.30;41.50
36652;DHT22;53334;51.976;20.144;2022-11-23T12:03:00;25.30;41.70
36652;DHT22;53334;51.976;20.144;2022-11-23T12:05:40;25.30;42.30
36652;DHT22;53334;51.976;20.144;2022-11-23T12:08:20;25.30;42.60
36652;DHT22;53334;51.976;20.144;2022-11-23T12:10:57;25.30;42.40
36652;DHT22;53334;51.976;20.144;2022-11-23T12:13:36;25.40;42.90
36652;DHT22;53334;51.976;20.144;2022-11-23T12:16:19;25.30;42.90
36652;DHT22;53334;51.976;20.144;2022-11-23T12:19:14;25.40;43.00
36652;DHT22;53334;51.976;20.144;2022-11-23T12:22:15;25.40;42.90
36652;DHT22;53334;51.976;20.144;2022-11-23T12:25:10;25.30;43.30
36652;DHT22;53334;51.976;20.144;2022-11-23T12:27:53;25.30;43.70
36652;DHT22;53334;51.976;20.144;2022-11-23T12:30:37;25.40;43.80
36652;DHT22;53334;51.976;20.144;2022-11-23T12:33:44;25.40;43.70
36652;DHT22;53334;51.976;20.144;2022-11-23T12:36:37;25.40;43.60
36652;DHT22;53334;51.976;20.144;2022-11-23T12:42:23;25.40;43.80
36652;DHT22;53334;51.976;20.144;2022-11-23T12:45:24;25.30;44.30
36652;DHT22;53334;51.976;20.144;2022-11-23T12:48:19;25.40;45.20
36652;DHT22;53334;51.976;20.144;2022-11-23T12:50:59;25.40;46.30
36652;DHT22;53334;51.976;20.144;2022-11-23T12:53:48;25.40;47.00
36652;DHT22;53334;51.976;20.144;2022-11-23T12:56:35;25.40;47.30
36652;DHT22;53334;51.976;20.144;2022-11-23T12:59:14;25.40;47.70
36652;DHT22;53334;51.976;20.144;2022-11-23T13:01:54;25.40;47.70
36652;DHT22;53334;51.976;20.144;2022-11-23T13:05:08;25.40;47.90
36652;DHT22;53334;51.976;20.144;2022-11-23T13:08:19;25.40;47.90
36652;DHT22;53334;51.976;20.144;2022-11-23T13:11:10;25.40;47.80
36652;DHT22;53334;51.976;20.144;2022-11-23T13:14:02;25.40;47.70
36652;DHT22;53334;51.976;20.144;2022-11-23T13:16:59;25.40;47.60
36652;DHT22;53334;51.976;20.144;2022-11-23T13:20:12;25.40;47.60
36652;DHT22;53334;51.976;20.144;2022-11-23T13:22:48;25.50;47.50
36652;DHT22;53334;51.976;20.144;2022-11-23T13:25:25;25.40;47.20
36652;DHT22;53334;51.976;20.144;2022-11-23T13:28:01;25.40;47.30
36652;DHT22;53334;51.976;20.144;2022-11-23T13:30:37;25.40;47.10
36652;DHT22;53334;51.976;20.144;2022-11-23T13:33:36;25.40;47.00
36652;DHT22;53334;51.976;20.144;2022-11-23T13:36:38;25.40;46.90
36652;DHT22;53334;51.976;20.144;2022-11-23T13:42:38;25.40;46.70
36652;DHT22;53334;51.976;20.144;2022-11-23T13:49:34;25.30;46.50
36652;DHT22;53334;51.976;20.144;2022-11-23T13:52:29;25.30;46.50
36652;DHT22;53334;51.976;20.144;2022-11-23T13:55:19;25.30;46.50
36652;DHT22;53334;51.976;20.144;2022-11-23T14:01:06;25.30;46.40
36652;DHT22;53334;51.976;20.144;2022-11-23T14:03:52;25.20;36.10
36652;DHT22;53334;51.976;20.144;2022-11-23T14:06:45;25.00;33.10
36652;DHT22;53334;51.976;20.144;2022-11-23T14:09:29;24.90;35.30
36652;DHT22;53334;51.976;20.144;2022-11-23T14:12:16;24.90;36.10
36652;DHT22;53334;51.976;20.144;2022-11-23T14:14:56;24.90;35.50
36652;DHT22;53334;51.976;20.144;2022-11-23T14:17:58;25.00;35.40
36652;DHT22;53334;51.976;20.144;2022-11-23T14:20:53;25.10;35.00
36652;DHT22;53334;51.976;20.144;2022-11-23T14:27:02;25.30;35.00
36652;DHT22;53334;51.976;20.144;2022-11-23T14:30:05;25.50;35.60
36652;DHT22;53334;51.976;20.144;2022-11-23T14:32:55;25.50;36.30
36652;DHT22;53334;51.976;20.144;2022-11-23T14:35:42;25.60;36.80
36652;DHT22;53334;51.976;20.144;2022-11-23T14:41:29;25.70;37.30
36652;DHT22;53334;51.976;20.144;2022-11-23T14:44:12;25.60;36.80
36652;DHT22;53334;51.976;20.144;2022-11-23T14:46:58;25.70;37.30
36652;DHT22;53334;51.976;20.144;2022-11-23T14:49:34;25.60;37.80
36652;DHT22;53334;51.976;20.144;2022-11-23T14:52:17;25.60;37.00
36652;DHT22;53334;51.976;20.144;2022-11-23T14:54:54;25.60;37.60
36652;DHT22;53334;51.976;20.144;2022-11-23T14:57:35;25.60;37.20
36652;DHT22;53334;51.976;20.144;2022-11-23T15:00:25;25.50;37.90
36652;DHT22;53334;51.976;20.144;2022-11-23T15:03:06;25.50;39.20
36652;DHT22;53334;51.976;20.144;2022-11-23T15:06:07;25.50;39.00
36652;DHT22;53334;51.976;20.144;2022-11-23T15:08:45;25.40;39.20
36652;DHT22;53334;51.976;20.144;2022-11-23T15:11:24;25.40;39.50
36652;DHT22;53334;51.976;20.144;2022-11-23T15:14:00;25.40;39.70
36652;DHT22;53334;51.976;20.144;2022-11-23T15:16:41;25.40;39.90
36652;DHT22;53334;51.976;20.144;2022-11-23T15:19:17;25.30;40.40
36652;DHT22;53334;51.976;20.144;2022-11-23T15:21:51;25.30;40.90
36652;DHT22;53334;51.976;20.144;2022-11-23T15:24:26;25.30;41.00
36652;DHT22;53334;51.976;20.144;2022-11-23T15:27:04;25.30;41.10
36652;DHT22;53334;51.976;20.144;2022-11-23T15:29:51;25.20;41.30
36652;DHT22;53334;51.976;20.144;2022-11-23T15:36:12;25.20;41.80
36652;DHT22;53334;51.976;20.144;2022-11-23T15:38:47;25.20;42.20
36652;DHT22;53334;51.976;20.144;2022-11-23T15:46:02;25.20;42.70
36652;DHT22;53334;51.976;20.144;2022-11-23T15:48:37;25.20;42.70
36652;DHT22;53334;51.976;20.144;2022-11-23T15:51:26;25.20;43.00
36652;DHT22;53334;51.976;20.144;2022-11-23T15:54:00;25.20;43.30
36652;DHT22;53334;51.976;20.144;2022-11-23T15:56:36;25.20;43.40
36652;DHT22;53334;51.976;20.144;2022-11-23T15:59:27;25.20;43.60
36652;DHT22;53334;51.976;20.144;2022-11-23T16:02:05;25.20;44.00
36652;DHT22;53334;51.976;20.144;2022-11-23T16:04:40;25.20;44.00
36652;DHT22;53334;51.976;20.144;2022-11-23T16:07:18;25.20;44.20
36652;DHT22;53334;51.976;20.144;2022-11-23T16:10:09;25.30;44.30
36652;DHT22;53334;51.976;20.144;2022-11-23T16:12:48;25.30;44.60
36652;DHT22;53334;51.976;20.144;2022-11-23T16:15:37;25.30;44.70
36652;DHT22;53334;51.976;20.144;2022-11-23T16:18:19;25.30;45.00
36652;DHT22;53334;51.976;20.144;2022-11-23T16:20:56;25.30;45.00
36652;DHT22;53334;51.976;20.144;2022-11-23T16:23:41;25.30;45.10
36652;DHT22;53334;51.976;20.144;2022-11-23T16:26:17;25.30;45.50
36652;DHT22;53334;51.976;20.144;2022-11-23T16:28:53;25.30;45.40
36652;DHT22;53334;51.976;20.144;2022-11-23T16:31:29;25.30;45.50
36652;DHT22;53334;51.976;20.144;2022-11-23T16:34:14;25.30;45.60
36652;DHT22;53334;51.976;20.144;2022-11-23T16:36:48;25.30;45.70
36652;DHT22;53334;51.976;20.144;2022-11-23T16:39:24;25.30;45.80
36652;DHT22;53334;51.976;20.144;2022-11-23T16:41:59;25.30;45.90
36652;DHT22;53334;51.976;20.144;2022-11-23T16:44:33;25.30;46.00
36652;DHT22;53334;51.976;20.144;2022-11-23T16:47:19;25.30;46.70
36652;DHT22;53334;51.976;20.144;2022-11-23T16:49:54;25.30;46.30
36652;DHT22;53334;51.976;20.144;2022-11-23T16:52:28;25.30;46.30
36652;DHT22;53334;51.976;20.144;2022-11-23T16:55:04;25.30;46.30
36652;DHT22;53334;51.976;20.144;2022-11-23T16:57:39;25.30;46.20
36652;DHT22;53334;51.976;20.144;2022-11-23T17:00:15;25.20;46.20